sensor_id;sensor_type;location;lat;lon;timestamp;pressure;altitude;pressure_sealevel;temperature;humidity
25944;BME280;13742;49.306;8.636;2023-07-08T00:00:15;100424.55;;;25.99;31.90
25944;BME280;13742;49.306;8.636;2023-07-08T00:01:15;100427.09;;;25.99;31.71
25944;BME280;13742;49.306;8.636;2023-07-08T00:02:13;100424.17;;;25.97;31.85
25944;BME280;13742;49.306;8.636;2023-07-08T00:03:17;100424.34;;;25.97;31.80
25944;BME280;13742;49.306;8.636;2023-07-08T00:04:13;100421.22;;;25.96;31.92
25944;BME280;13742;49.306;8.636;2023-07-08T00:05:14;100424.94;;;25.96;31.83
25944;BME280;13742;49.306;8.636;2023-07-08T00:06:18;100424.42;;;25.92;31.60
25944;BME280;13742;49.306;8.636;2023-07-08T00:07:21;100423.67;;;25.93;31.81
25944;BME280;13742;49.306;8.636;2023-07-08T00:08:14;100421.55;;;25.92;31.85
25944;BME280;13742;49.306;8.636;2023-07-08T00:09:13;100424.00;;;25.92;31.78
25944;BME280;13742;49.306;8.636;2023-07-08T00:10:24;100422.53;;;25.90;31.91
25944;BME280;13742;49.306;8.636;2023-07-08T00:11:14;100422.26;;;25.88;31.89
25944;BME280;13742;49.306;8.636;2023-07-08T00:12:13;100418.18;;;25.87;31.84
25944;BME280;13742;49.306;8.636;2023-07-08T00:13:13;100419.34;;;25.86;31.80
25944;BME280;13742;49.306;8.636;2023-07-08T00:14:13;100423.91;;;25.87;31.93
25944;BME280;13742;49.306;8.636;2023-07-08T00:15:14;100415.44;;;25.85;31.75
25944;BME280;13742;49.306;8.636;2023-07-08T00:16:15;100416.26;;;25.85;31.87
25944;BME280;13742;49.306;8.636;2023-07-08T00:17:13;100413.73;;;25.84;31.99
25944;BME280;13742;49.306;8.636;2023-07-08T00:18:14;100407.78;;;25.83;31.79
25944;BME280;13742;49.306;8.636;2023-07-08T00:19:19;100410.13;;;25.83;31.79
25944;BME280;13742;49.306;8.636;2023-07-08T00:21:15;100406.13;;;25.81;31.92
25944;BME280;13742;49.306;8.636;2023-07-08T00:22:16;100401.60;;;25.79;31.82
25944;BME280;13742;49.306;8.636;2023-07-08T00:23:13;100402.72;;;25.76;31.69
25944;BME280;13742;49.306;8.636;2023-07-08T00:24:13;100401.19;;;25.75;31.70
25944;BME280;13742;49.306;8.636;2023-07-08T00:25:15;100400.06;;;25.73;31.70
25944;BME280;13742;49.306;8.636;2023-07-08T00:26:23;100401.49;;;25.73;31.73
25944;BME280;13742;49.306;8.636;2023-07-08T00:27:13;100403.01;;;25.73;31.84
25944;BME280;13742;49.306;8.636;2023-07-08T00:28:14;100401.23;;;25.72;31.74
25944;BME280;13742;49.306;8.636;2023-07-08T00:29:14;100402.92;;;25.72;31.92
25944;BME280;13742;49.306;8.636;2023-07-08T00:30:21;100404.02;;;25.72;32.00
25944;BME280;13742;49.306;8.636;2023-07-08T00:31:14;100403.89;;;25.69;31.80
25944;BME280;13742;49.306;8.636;2023-07-08T00:32:14;100405.45;;;25.68;31.97
25944;BME280;13742;49.306;8.636;2023-07-08T00:33:13;100406.23;;;25.68;31.76
25944;BME280;13742;49.306;8.636;2023-07-08T00:34:15;100404.25;;;25.67;31.81
25944;BME280;13742;49.306;8.636;2023-07-08T00:35:14;100403.92;;;25.67;31.94
25944;BME280;13742;49.306;8.636;2023-07-08T00:36:14;100402.64;;;25.66;31.88
25944;BME280;13742;49.306;8.636;2023-07-08T00:37:13;100403.63;;;25.64;32.03
25944;BME280;13742;49.306;8.636;2023-07-08T00:39:14;100401.39;;;25.62;31.99
25944;BME280;13742;49.306;8.636;2023-07-08T00:40:17;100405.67;;;25.61;31.95
25944;BME280;13742;49.306;8.636;2023-07-08T00:42:17;100407.42;;;25.59;31.98
25944;BME280;13742;49.306;8.636;2023-07-08T00:43:13;100405.59;;;25.57;31.99
25944;BME280;13742;49.306;8.636;2023-07-08T00:44:13;100411.52;;;25.56;32.03
25944;BME280;13742;49.306;8.636;2023-07-08T00:47:14;100410.09;;;25.53;32.18
25944;BME280;13742;49.306;8.636;2023-07-08T00:48:18;100412.83;;;25.50;32.33
25944;BME280;13742;49.306;8.636;2023-07-08T00:50:13;100411.61;;;25.48;32.27
25944;BME280;13742;49.306;8.636;2023-07-08T00:51:13;100415.78;;;25.48;32.35
25944;BME280;13742;49.306;8.636;2023-07-08T00:52:21;100419.31;;;25.47;32.46
25944;BME280;13742;49.306;8.636;2023-07-08T00:54:14;100424.13;;;25.43;32.23
25944;BME280;13742;49.306;8.636;2023-07-08T00:55:13;100425.48;;;25.43;32.28
25944;BME280;13742;49.306;8.636;2023-07-08T00:56:18;100428.31;;;25.41;32.29
25944;BME280;13742;49.306;8.636;2023-07-08T00:57:13;100427.62;;;25.40;32.42
25944;BME280;13742;49.306;8.636;2023-07-08T00:58:15;100427.51;;;25.39;32.38
25944;BME280;13742;49.306;8.636;2023-07-08T00:59:24;100430.98;;;25.39;32.57
25944;BME280;13742;49.306;8.636;2023-07-08T01:00:15;100428.84;;;25.38;32.65
25944;BME280;13742;49.306;8.636;2023-07-08T01:01:14;100430.24;;;25.36;32.52
25944;BME280;13742;49.306;8.636;2023-07-08T01:02:13;100432.28;;;25.36;32.63
25944;BME280;13742;49.306;8.636;2023-07-08T01:03:13;100432.00;;;25.34;32.81
25944;BME280;13742;49.306;8.636;2023-07-08T01:04:23;100430.96;;;25.33;32.55
25944;BME280;13742;49.306;8.636;2023-07-08T01:05:14;100433.68;;;25.30;32.72
25944;BME280;13742;49.306;8.636;2023-07-08T01:06:13;100433.17;;;25.30;32.62
25944;BME280;13742;49.306;8.636;2023-07-08T01:07:22;100433.41;;;25.30;32.53
25944;BME280;13742;49.306;8.636;2023-07-08T01:08:13;100434.23;;;25.29;32.63
25944;BME280;13742;49.306;8.636;2023-07-08T01:09:14;100433.54;;;25.28;32.71
25944;BME280;13742;49.306;8.636;2023-07-08T01:10:14;100431.23;;;25.26;32.89
25944;BME280;13742;49.306;8.636;2023-07-08T01:11:13;100430.34;;;25.24;32.87
25944;BME280;13742;49.306;8.636;2023-07-08T01:12:17;100429.23;;;25.22;32.95
25944;BME280;13742;49.306;8.636;2023-07-08T01:13:13;100431.05;;;25.20;32.92
25944;BME280;13742;49.306;8.636;2023-07-08T01:14:14;100431.67;;;25.18;32.97
25944;BME280;13742;49.306;8.636;2023-07-08T01:15:14;100426.18;;;25.14;33.30
25944;BME280;13742;49.306;8.636;2023-07-08T01:16:14;100427.03;;;25.11;33.27
25944;BME280;13742;49.306;8.636;2023-07-08T01:17:14;100422.59;;;25.09;33.63
25944;BME280;13742;49.306;8.636;2023-07-08T01:18:17;100423.06;;;25.07;33.61
25944;BME280;13742;49.306;8.636;2023-07-08T01:19:15;100422.69;;;25.05;33.51
25944;BME280;13742;49.306;8.636;2023-07-08T01:20:14;100418.85;;;25.03;33.86
25944;BME280;13742;49.306;8.636;2023-07-08T01:22:13;100415.83;;;25.01;33.59
25944;BME280;13742;49.306;8.636;2023-07-08T01:23:13;100415.67;;;25.01;33.62
25944;BME280;13742;49.306;8.636;2023-07-08T01:24:13;100416.33;;;25.00;33.75
25944;BME280;13742;49.306;8.636;2023-07-08T01:25:13;100415.70;;;24.99;33.85
25944;BME280;13742;49.306;8.636;2023-07-08T01:26:13;100410.39;;;24.96;33.93
25944;BME280;13742;49.306;8.636;2023-07-08T01:27:14;100411.63;;;24.94;33.70
25944;BME280;13742;49.306;8.636;2023-07-08T01:28:14;100412.22;;;24.93;33.86
25944;BME280;13742;49.306;8.636;2023-07-08T01:29:13;100413.45;;;24.92;33.78
25944;BME280;13742;49.306;8.636;2023-07-08T01:30:14;100416.23;;;24.91;33.73
25944;BME280;13742;49.306;8.636;2023-07-08T01:31:13;100413.82;;;24.89;33.61
25944;BME280;13742;49.306;8.636;2023-07-08T01:32:17;100419.02;;;24.87;33.72
25944;BME280;13742;49.306;8.636;2023-07-08T01:33:17;100416.80;;;24.86;33.55
25944;BME280;13742;49.306;8.636;2023-07-08T01:34:14;100415.77;;;24.85;33.70
25944;BME280;13742;49.306;8.636;2023-07-08T01:35:13;100420.11;;;24.83;33.62
25944;BME280;13742;49.306;8.636;2023-07-08T01:36:13;100420.02;;;24.83;33.66
25944;BME280;13742;49.306;8.636;2023-07-08T01:37:13;100423.98;;;24.82;33.60
25944;BME280;13742;49.306;8.636;2023-07-08T01:38:13;100426.56;;;24.81;33.52
25944;BME280;13742;49.306;8.636;2023-07-08T01:39:14;100422.25;;;24.80;33.73
25944;BME280;13742;49.306;8.636;2023-07-08T01:40:23;100423.40;;;24.79;33.52
25944;BME280;13742;49.306;8.636;2023-07-08T01:41:14;100424.16;;;24.78;33.50
25944;BME280;13742;49.306;8.636;2023-07-08T01:42:13;100421.16;;;24.77;33.83
25944;BME280;13742;49.306;8.636;2023-07-08T01:43:13;100421.00;;;24.77;33.59
25944;BME280;13742;49.306;8.636;2023-07-08T01:45:14;100420.38;;;24.75;33.58
25944;BME280;13742;49.306;8.636;2023-07-08T01:46:15;100415.77;;;24.73;33.80
25944;BME280;13742;49.306;8.636;2023-07-08T01:47:15;100418.73;;;24.73;33.71
25944;BME280;13742;49.306;8.636;2023-07-08T01:48:14;100418.69;;;24.72;33.74
25944;BME280;13742;49.306;8.636;2023-07-08T01:49:13;100416.39;;;24.72;33.70
25944;BME280;13742;49.306;8.636;2023-07-08T01:50:13;100416.38;;;24.71;33.93
25944;BME280;13742;49.306;8.636;2023-07-08T01:51:13;100412.91;;;24.70;33.85
25944;BME280;13742;49.306;8.636;2023-07-08T01:52:14;100412.38;;;24.69;34.05
25944;BME280;13742;49.306;8.636;2023-07-08T01:53:14;100408.38;;;24.67;33.75
25944;BME280;13742;49.306;8.636;2023-07-08T01:54:13;100406.86;;;24.67;33.77
25944;BME280;13742;49.306;8.636;2023-07-08T01:55:13;100404.85;;;24.65;33.89
25944;BME280;13742;49.306;8.636;2023-07-08T01:56:14;100405.19;;;24.65;33.97
25944;BME280;13742;49.306;8.636;2023-07-08T01:57:13;100404.33;;;24.63;33.89
25944;BME280;13742;49.306;8.636;2023-07-08T01:58:13;100402.86;;;24.62;34.27
25944;BME280;13742;49.306;8.636;2023-07-08T01:59:13;100407.42;;;24.62;33.94
25944;BME280;13742;49.306;8.636;2023-07-08T02:00:13;100405.66;;;24.59;34.00
25944;BME280;13742;49.306;8.636;2023-07-08T02:01:13;100404.72;;;24.58;33.90
25944;BME280;13742;49.306;8.636;2023-07-08T02:02:13;100402.82;;;24.56;33.87
25944;BME280;13742;49.306;8.636;2023-07-08T02:03:14;100407.55;;;24.56;34.06
25944;BME280;13742;49.306;8.636;2023-07-08T02:04:13;100403.28;;;24.54;33.97
25944;BME280;13742;49.306;8.636;2023-07-08T02:05:14;100404.70;;;24.54;34.08
25944;BME280;13742;49.306;8.636;2023-07-08T02:06:13;100402.18;;;24.53;34.04
25944;BME280;13742;49.306;8.636;2023-07-08T02:07:13;100401.67;;;24.50;34.31
25944;BME280;13742;49.306;8.636;2023-07-08T02:08:13;100399.88;;;24.50;34.05
25944;BME280;13742;49.306;8.636;2023-07-08T02:09:13;100402.48;;;24.49;34.13
25944;BME280;13742;49.306;8.636;2023-07-08T02:10:13;100399.94;;;24.48;34.24
25944;BME280;13742;49.306;8.636;2023-07-08T02:11:13;100400.35;;;24.47;34.18
25944;BME280;13742;49.306;8.636;2023-07-08T02:12:13;100392.06;;;24.45;34.15
25944;BME280;13742;49.306;8.636;2023-07-08T02:13:13;100391.38;;;24.44;34.44
25944;BME280;13742;49.306;8.636;2023-07-08T02:14:13;100390.07;;;24.42;34.13
25944;BME280;13742;49.306;8.636;2023-07-08T02:15:13;100390.29;;;24.41;34.13
25944;BME280;13742;49.306;8.636;2023-07-08T02:16:13;100389.16;;;24.40;34.35
25944;BME280;13742;49.306;8.636;2023-07-08T02:17:16;100390.34;;;24.39;34.23
25944;BME280;13742;49.306;8.636;2023-07-08T02:18:13;100394.51;;;24.38;34.18
25944;BME280;13742;49.306;8.636;2023-07-08T02:19:13;100394.41;;;24.37;34.20
25944;BME280;13742;49.306;8.636;2023-07-08T02:20:13;100389.60;;;24.36;34.32
25944;BME280;13742;49.306;8.636;2023-07-08T02:21:13;100387.45;;;24.35;34.38
25944;BME280;13742;49.306;8.636;2023-07-08T02:22:13;100391.16;;;24.35;34.25
25944;BME280;13742;49.306;8.636;2023-07-08T02:23:14;100391.13;;;24.33;34.22
25944;BME280;13742;49.306;8.636;2023-07-08T02:24:16;100389.91;;;24.32;34.13
25944;BME280;13742;49.306;8.636;2023-07-08T02:25:13;100389.55;;;24.31;34.36
25944;BME280;13742;49.306;8.636;2023-07-08T02:26:13;100387.84;;;24.29;34.21
25944;BME280;13742;49.306;8.636;2023-07-08T02:27:14;100389.50;;;24.29;34.25
25944;BME280;13742;49.306;8.636;2023-07-08T02:28:13;100391.60;;;24.28;34.29
25944;BME280;13742;49.306;8.636;2023-07-08T02:29:13;100390.36;;;24.28;34.51
25944;BME280;13742;49.306;8.636;2023-07-08T02:30:13;100390.20;;;24.26;34.47
25944;BME280;13742;49.306;8.636;2023-07-08T02:31:13;100391.78;;;24.24;34.58
25944;BME280;13742;49.306;8.636;2023-07-08T02:32:13;100391.10;;;24.21;34.39
25944;BME280;13742;49.306;8.636;2023-07-08T02:33:14;100394.06;;;24.22;34.62
25944;BME280;13742;49.306;8.636;2023-07-08T02:34:13;100393.61;;;24.19;34.63
25944;BME280;13742;49.306;8.636;2023-07-08T02:35:13;100400.20;;;24.19;34.37
25944;BME280;13742;49.306;8.636;2023-07-08T02:36:13;100400.98;;;24.18;34.46
25944;BME280;13742;49.306;8.636;2023-07-08T02:37:13;100402.14;;;24.16;34.52
25944;BME280;13742;49.306;8.636;2023-07-08T02:38:13;100406.09;;;24.16;34.64
25944;BME280;13742;49.306;8.636;2023-07-08T02:39:13;100406.91;;;24.15;34.79
25944;BME280;13742;49.306;8.636;2023-07-08T02:40:14;100409.19;;;24.14;34.92
25944;BME280;13742;49.306;8.636;2023-07-08T02:41:13;100406.77;;;24.13;34.80
25944;BME280;13742;49.306;8.636;2023-07-08T02:42:13;100412.66;;;24.11;34.93
25944;BME280;13742;49.306;8.636;2023-07-08T02:43:13;100414.63;;;24.10;34.87
25944;BME280;13742;49.306;8.636;2023-07-08T02:44:13;100418.15;;;24.08;35.03
25944;BME280;13742;49.306;8.636;2023-07-08T02:45:14;100420.13;;;24.06;35.26
25944;BME280;13742;49.306;8.636;2023-07-08T02:46:13;100421.66;;;24.04;35.33
25944;BME280;13742;49.306;8.636;2023-07-08T02:47:13;100421.34;;;24.01;35.40
25944;BME280;13742;49.306;8.636;2023-07-08T02:48:13;100424.70;;;24.00;35.38
25944;BME280;13742;49.306;8.636;2023-07-08T02:49:13;100428.36;;;23.98;35.30
25944;BME280;13742;49.306;8.636;2023-07-08T02:50:13;100426.78;;;23.96;35.49
25944;BME280;13742;49.306;8.636;2023-07-08T02:51:13;100426.30;;;23.94;35.46
25944;BME280;13742;49.306;8.636;2023-07-08T02:52:13;100427.84;;;23.91;35.63
25944;BME280;13742;49.306;8.636;2023-07-08T02:53:13;100432.03;;;23.89;35.64
25944;BME280;13742;49.306;8.636;2023-07-08T02:54:13;100432.53;;;23.87;35.60
25944;BME280;13742;49.306;8.636;2023-07-08T02:55:13;100431.06;;;23.85;35.77
25944;BME280;13742;49.306;8.636;2023-07-08T02:56:13;100430.56;;;23.83;35.95
25944;BME280;13742;49.306;8.636;2023-07-08T02:57:13;100430.14;;;23.82;35.96
25944;BME280;13742;49.306;8.636;2023-07-08T02:58:13;100429.75;;;23.80;35.80
25944;BME280;13742;49.306;8.636;2023-07-08T02:59:13;100429.38;;;23.79;35.99
25944;BME280;13742;49.306;8.636;2023-07-08T03:00:15;100432.50;;;23.77;35.98
25944;BME280;13742;49.306;8.636;2023-07-08T03:01:17;100434.50;;;23.76;35.96
25944;BME280;13742;49.306;8.636;2023-07-08T03:02:14;100434.11;;;23.74;36.17
25944;BME280;13742;49.306;8.636;2023-07-08T03:03:16;100436.78;;;23.73;36.02
25944;BME280;13742;49.306;8.636;2023-07-08T03:04:13;100436.17;;;23.68;36.46
25944;BME280;13742;49.306;8.636;2023-07-08T03:05:13;100436.00;;;23.68;36.37
25944;BME280;13742;49.306;8.636;2023-07-08T03:06:14;100440.26;;;23.67;36.07
25944;BME280;13742;49.306;8.636;2023-07-08T03:07:13;100441.75;;;23.65;36.12
25944;BME280;13742;49.306;8.636;2023-07-08T03:08:13;100449.05;;;23.64;36.13
25944;BME280;13742;49.306;8.636;2023-07-08T03:09:13;100442.55;;;23.62;36.56
25944;BME280;13742;49.306;8.636;2023-07-08T03:10:13;100443.27;;;23.59;36.44
25944;BME280;13742;49.306;8.636;2023-07-08T03:11:13;100444.88;;;23.56;36.48
25944;BME280;13742;49.306;8.636;2023-07-08T03:12:13;100442.25;;;23.56;36.35
25944;BME280;13742;49.306;8.636;2023-07-08T03:13:13;100438.59;;;23.54;36.19
25944;BME280;13742;49.306;8.636;2023-07-08T03:14:13;100439.67;;;23.54;36.19
25944;BME280;13742;49.306;8.636;2023-07-08T03:15:13;100440.84;;;23.54;36.27
25944;BME280;13742;49.306;8.636;2023-07-08T03:16:13;100439.13;;;23.53;36.35
25944;BME280;13742;49.306;8.636;2023-07-08T03:17:13;100441.30;;;23.52;35.93
25944;BME280;13742;49.306;8.636;2023-07-08T03:18:13;100443.25;;;23.52;36.40
25944;BME280;13742;49.306;8.636;2023-07-08T03:19:15;100437.25;;;23.52;36.53
25944;BME280;13742;49.306;8.636;2023-07-08T03:20:14;100437.03;;;23.50;36.67
25944;BME280;13742;49.306;8.636;2023-07-08T03:21:14;100435.36;;;23.47;36.49
25944;BME280;13742;49.306;8.636;2023-07-08T03:22:13;100438.56;;;23.47;36.09
25944;BME280;13742;49.306;8.636;2023-07-08T03:23:13;100438.27;;;23.46;36.28
25944;BME280;13742;49.306;8.636;2023-07-08T03:24:14;100437.22;;;23.45;36.70
25944;BME280;13742;49.306;8.636;2023-07-08T03:25:13;100439.59;;;23.45;36.63
25944;BME280;13742;49.306;8.636;2023-07-08T03:26:14;100436.67;;;23.43;36.36
25944;BME280;13742;49.306;8.636;2023-07-08T03:27:13;100438.08;;;23.42;36.51
25944;BME280;13742;49.306;8.636;2023-07-08T03:28:14;100438.36;;;23.40;36.46
25944;BME280;13742;49.306;8.636;2023-07-08T03:29:17;100435.16;;;23.40;36.66
25944;BME280;13742;49.306;8.636;2023-07-08T03:30:13;100434.73;;;23.39;36.53
25944;BME280;13742;49.306;8.636;2023-07-08T03:31:13;100431.13;;;23.38;36.72
25944;BME280;13742;49.306;8.636;2023-07-08T03:32:13;100435.39;;;23.36;36.74
25944;BME280;13742;49.306;8.636;2023-07-08T03:33:13;100440.44;;;23.36;36.63
25944;BME280;13742;49.306;8.636;2023-07-08T03:34:14;100438.25;;;23.36;36.57
25944;BME280;13742;49.306;8.636;2023-07-08T03:35:13;100441.53;;;23.35;36.48
25944;BME280;13742;49.306;8.636;2023-07-08T03:36:17;100438.77;;;23.34;36.54
25944;BME280;13742;49.306;8.636;2023-07-08T03:37:13;100442.08;;;23.34;36.45
25944;BME280;13742;49.306;8.636;2023-07-08T03:38:13;100440.70;;;23.32;36.75
25944;BME280;13742;49.306;8.636;2023-07-08T03:39:14;100442.19;;;23.32;36.45
25944;BME280;13742;49.306;8.636;2023-07-08T03:40:13;100441.44;;;23.33;36.53
25944;BME280;13742;49.306;8.636;2023-07-08T03:41:13;100440.20;;;23.31;36.46
25944;BME280;13742;49.306;8.636;2023-07-08T03:42:13;100437.92;;;23.29;36.73
25944;BME280;13742;49.306;8.636;2023-07-08T03:43:13;100440.66;;;23.28;36.58
25944;BME280;13742;49.306;8.636;2023-07-08T03:44:15;100441.73;;;23.28;36.57
25944;BME280;13742;49.306;8.636;2023-07-08T03:45:13;100444.20;;;23.26;36.71
25944;BME280;13742;49.306;8.636;2023-07-08T03:46:14;100441.51;;;23.26;36.73
25944;BME280;13742;49.306;8.636;2023-07-08T03:47:13;100440.67;;;23.26;36.58
25944;BME280;13742;49.306;8.636;2023-07-08T03:48:13;100443.80;;;23.26;36.52
25944;BME280;13742;49.306;8.636;2023-07-08T03:49:13;100445.65;;;23.26;36.66
25944;BME280;13742;49.306;8.636;2023-07-08T03:50:26;100436.36;;;23.25;36.70
25944;BME280;13742;49.306;8.636;2023-07-08T03:51:17;100437.56;;;23.20;36.72
25944;BME280;13742;49.306;8.636;2023-07-08T03:52:14;100438.04;;;23.19;36.70
25944;BME280;13742;49.306;8.636;2023-07-08T03:53:13;100438.02;;;23.16;36.57
25944;BME280;13742;49.306;8.636;2023-07-08T03:54:13;100440.67;;;23.17;36.53
25944;BME280;13742;49.306;8.636;2023-07-08T03:55:13;100442.56;;;23.18;36.35
25944;BME280;13742;49.306;8.636;2023-07-08T03:56:13;100441.75;;;23.17;36.69
25944;BME280;13742;49.306;8.636;2023-07-08T03:57:13;100445.76;;;23.18;36.74
25944;BME280;13742;49.306;8.636;2023-07-08T03:58:13;100448.05;;;23.16;36.84
25944;BME280;13742;49.306;8.636;2023-07-08T03:59:13;100448.93;;;23.17;36.61
25944;BME280;13742;49.306;8.636;2023-07-08T04:00:13;100447.92;;;23.17;36.64
25944;BME280;13742;49.306;8.636;2023-07-08T04:01:17;100454.42;;;23.17;36.73
25944;BME280;13742;49.306;8.636;2023-07-08T04:02:13;100449.94;;;23.17;36.72
25944;BME280;13742;49.306;8.636;2023-07-08T04:03:13;100446.06;;;23.17;36.73
25944;BME280;13742;49.306;8.636;2023-07-08T04:04:15;100448.30;;;23.15;36.87
25944;BME280;13742;49.306;8.636;2023-07-08T04:05:17;100453.42;;;23.15;36.67
25944;BME280;13742;49.306;8.636;2023-07-08T04:06:13;100452.98;;;23.14;36.67
25944;BME280;13742;49.306;8.636;2023-07-08T04:07:13;100455.24;;;23.14;36.83
25944;BME280;13742;49.306;8.636;2023-07-08T04:08:13;100454.14;;;23.14;36.80
25944;BME280;13742;49.306;8.636;2023-07-08T04:09:13;100459.13;;;23.12;36.84
25944;BME280;13742;49.306;8.636;2023-07-08T04:10:13;100460.05;;;23.11;36.89
25944;BME280;13742;49.306;8.636;2023-07-08T04:11:14;100455.97;;;23.10;36.91
25944;BME280;13742;49.306;8.636;2023-07-08T04:12:13;100455.87;;;23.09;37.08
25944;BME280;13742;49.306;8.636;2023-07-08T04:13:13;100457.80;;;23.08;37.10
25944;BME280;13742;49.306;8.636;2023-07-08T04:14:13;100461.30;;;23.07;37.28
25944;BME280;13742;49.306;8.636;2023-07-08T04:15:13;100458.34;;;23.06;37.29
25944;BME280;13742;49.306;8.636;2023-07-08T04:16:33;100456.59;;;23.06;37.19
25944;BME280;13742;49.306;8.636;2023-07-08T04:17:13;100456.13;;;23.04;37.33
25944;BME280;13742;49.306;8.636;2023-07-08T04:18:13;100457.31;;;23.02;37.48
25944;BME280;13742;49.306;8.636;2023-07-08T04:19:15;100458.25;;;23.03;37.28
25944;BME280;13742;49.306;8.636;2023-07-08T04:20:14;100454.97;;;22.99;37.46
25944;BME280;13742;49.306;8.636;2023-07-08T04:21:13;100454.33;;;22.98;37.41
25944;BME280;13742;49.306;8.636;2023-07-08T04:22:13;100455.03;;;22.99;37.50
25944;BME280;13742;49.306;8.636;2023-07-08T04:23:13;100455.23;;;22.97;37.61
25944;BME280;13742;49.306;8.636;2023-07-08T04:24:14;100453.59;;;22.96;37.46
25944;BME280;13742;49.306;8.636;2023-07-08T04:25:14;100453.96;;;22.97;37.45
25944;BME280;13742;49.306;8.636;2023-07-08T04:26:13;100455.14;;;22.97;37.42
25944;BME280;13742;49.306;8.636;2023-07-08T04:27:14;100454.51;;;22.95;37.55
25944;BME280;13742;49.306;8.636;2023-07-08T04:28:13;100455.65;;;22.97;37.51
25944;BME280;13742;49.306;8.636;2023-07-08T04:29:14;100450.93;;;22.97;37.62
25944;BME280;13742;49.306;8.636;2023-07-08T04:30:18;100452.81;;;22.98;37.46
25944;BME280;13742;49.306;8.636;2023-07-08T04:31:13;100453.18;;;22.99;37.57
25944;BME280;13742;49.306;8.636;2023-07-08T04:32:13;100451.73;;;22.99;37.54
25944;BME280;13742;49.306;8.636;2023-07-08T04:33:14;100446.75;;;22.98;37.53
25944;BME280;13742;49.306;8.636;2023-07-08T04:34:14;100449.52;;;22.98;37.57
25944;BME280;13742;49.306;8.636;2023-07-08T04:35:14;100448.08;;;22.95;37.42
25944;BME280;13742;49.306;8.636;2023-07-08T04:36:14;100448.81;;;22.97;37.33
25944;BME280;13742;49.306;8.636;2023-07-08T04:37:13;100450.45;;;22.98;37.61
25944;BME280;13742;49.306;8.636;2023-07-08T04:38:17;100450.58;;;22.99;37.47
25944;BME280;13742;49.306;8.636;2023-07-08T04:39:13;100450.78;;;23.00;37.28
25944;BME280;13742;49.306;8.636;2023-07-08T04:40:17;100446.70;;;23.02;37.25
25944;BME280;13742;49.306;8.636;2023-07-08T04:41:13;100446.36;;;23.02;37.27
25944;BME280;13742;49.306;8.636;2023-07-08T04:42:15;100441.68;;;23.03;37.33
25944;BME280;13742;49.306;8.636;2023-07-08T04:43:14;100440.80;;;23.05;37.25
25944;BME280;13742;49.306;8.636;2023-07-08T04:44:13;100446.14;;;23.06;37.27
25944;BME280;13742;49.306;8.636;2023-07-08T04:45:14;100445.67;;;23.07;37.20
25944;BME280;13742;49.306;8.636;2023-07-08T04:46:21;100444.73;;;23.06;37.35
25944;BME280;13742;49.306;8.636;2023-07-08T04:47:13;100442.53;;;23.07;37.29
25944;BME280;13742;49.306;8.636;2023-07-08T04:48:14;100443.55;;;23.08;37.31
25944;BME280;13742;49.306;8.636;2023-07-08T04:49:13;100443.34;;;23.10;37.38
25944;BME280;13742;49.306;8.636;2023-07-08T04:50:13;100446.61;;;23.09;37.18
25944;BME280;13742;49.306;8.636;2023-07-08T04:51:14;100450.38;;;23.12;37.16
25944;BME280;13742;49.306;8.636;2023-07-08T04:52:13;100454.20;;;23.13;37.19
25944;BME280;13742;49.306;8.636;2023-07-08T04:53:13;100453.97;;;23.13;37.11
25944;BME280;13742;49.306;8.636;2023-07-08T04:54:13;100454.81;;;23.13;37.36
25944;BME280;13742;49.306;8.636;2023-07-08T04:55:13;100460.27;;;23.13;37.19
25944;BME280;13742;49.306;8.636;2023-07-08T04:56:13;100462.09;;;23.14;37.07
25944;BME280;13742;49.306;8.636;2023-07-08T04:57:16;100460.09;;;23.16;37.33
25944;BME280;13742;49.306;8.636;2023-07-08T04:58:13;100464.84;;;23.16;37.17
25944;BME280;13742;49.306;8.636;2023-07-08T04:59:15;100459.81;;;23.18;37.21
25944;BME280;13742;49.306;8.636;2023-07-08T05:00:14;100458.83;;;23.19;37.27
25944;BME280;13742;49.306;8.636;2023-07-08T05:01:13;100463.27;;;23.21;37.29
25944;BME280;13742;49.306;8.636;2023-07-08T05:02:14;100461.52;;;23.21;37.08
25944;BME280;13742;49.306;8.636;2023-07-08T05:03:13;100462.65;;;23.23;37.04
25944;BME280;13742;49.306;8.636;2023-07-08T05:04:14;100466.64;;;23.27;37.34
25944;BME280;13742;49.306;8.636;2023-07-08T05:05:13;100463.23;;;23.28;37.55
25944;BME280;13742;49.306;8.636;2023-07-08T05:06:13;100460.90;;;23.30;37.49
25944;BME280;13742;49.306;8.636;2023-07-08T05:07:13;100459.95;;;23.32;37.49
25944;BME280;13742;49.306;8.636;2023-07-08T05:08:13;100463.81;;;23.34;37.74
25944;BME280;13742;49.306;8.636;2023-07-08T05:09:13;100464.20;;;23.36;37.29
25944;BME280;13742;49.306;8.636;2023-07-08T05:10:13;100460.43;;;23.37;37.11
25944;BME280;13742;49.306;8.636;2023-07-08T05:11:13;100458.07;;;23.37;37.00
25944;BME280;13742;49.306;8.636;2023-07-08T05:12:13;100457.55;;;23.39;37.16
25944;BME280;13742;49.306;8.636;2023-07-08T05:13:13;100457.54;;;23.42;36.95
25944;BME280;13742;49.306;8.636;2023-07-08T05:14:13;100460.19;;;23.43;37.06
25944;BME280;13742;49.306;8.636;2023-07-08T05:15:13;100460.92;;;23.45;37.17
25944;BME280;13742;49.306;8.636;2023-07-08T05:16:13;100461.41;;;23.48;37.03
25944;BME280;13742;49.306;8.636;2023-07-08T05:17:13;100462.75;;;23.50;37.02
25944;BME280;13742;49.306;8.636;2023-07-08T05:18:13;100461.12;;;23.52;37.36
25944;BME280;13742;49.306;8.636;2023-07-08T05:19:13;100464.35;;;23.53;36.93
25944;BME280;13742;49.306;8.636;2023-07-08T05:20:14;100461.37;;;23.56;37.17
25944;BME280;13742;49.306;8.636;2023-07-08T05:21:14;100463.74;;;23.59;37.22
25944;BME280;13742;49.306;8.636;2023-07-08T05:22:13;100459.58;;;23.62;36.94